This is the latest recevied weather packets stored in our database for station/object PU5BHV. If no packets are shown the sender has not sent any weather packets the latest 10 day(s).
| Time | Temp. | Humidity | Pressure | Rain* | Wind** | Luminosity | Snow |
|---|---|---|---|---|---|---|---|
| 1777906846 | 22.22° C | 73% | 1020.8 hPa | 0 mm | - | 372 W/m² | - |
| 1777906543 | 21.67° C | 74% | 1021.1 hPa | 0 mm | - | 262 W/m² | - |
| 1777906238 | 21.67° C | 75% | 1021.1 hPa | 0 mm | - | 370 W/m² | - |
| 1777905935 | 21.67° C | 74% | 1021 hPa | 0 mm | - | 278 W/m² | - |
| 1777905632 | 21.67° C | 75% | 1021.2 hPa | 0 mm | - | 220 W/m² | - |
| 1777905329 | 21.67° C | 74% | 1021.3 hPa | 0 mm | - | 291 W/m² | - |
| 1777905027 | 21.67° C | 72% | 1021.2 hPa | 0 mm | - | 350 W/m² | - |
| 1777904724 | 21.67° C | 73% | 1021.2 hPa | 0 mm | - | 441 W/m² | - |
| 1777904421 | 21.11° C | 77% | 1021.4 hPa | 0 mm | - | 395 W/m² | - |
| 1777904117 | 21.11° C | 75% | 1021.6 hPa | 0 mm | - | 278 W/m² | - |
| 1777903814 | 21.11° C | 74% | 1021.3 hPa | 0 mm | - | 298 W/m² | - |
| 1777903511 | 21.11° C | 75% | 1021.3 hPa | 0 mm | - | 251 W/m² | - |
| 1777903207 | 20.56° C | 75% | 1021.6 hPa | 0 mm | - | 298 W/m² | - |
| 1777902903 | 21.11° C | 76% | 1021.4 hPa | 0 mm | - | 230 W/m² | - |
| 1777902600 | 20.56° C | 76% | 1021.4 hPa | 0 mm | - | 205 W/m² | - |
| 1777902297 | 20.56° C | 76% | 1021.5 hPa | 0 mm | - | 195 W/m² | - |
| 1777901995 | 21.11° C | 74% | 1021.7 hPa | 0 mm | - | 182 W/m² | - |
| 1777901693 | 21.11° C | 74% | 1021.8 hPa | 0 mm | - | 237 W/m² | - |
| 1777901390 | 20.56° C | 74% | 1021.7 hPa | 0 mm | - | 358 W/m² | - |
| 1777901088 | 20.56° C | 77% | 1021.8 hPa | 0 mm | - | 298 W/m² | - |
| 1777900784 | 20.56° C | 75% | 1021.9 hPa | 0 mm | - | 317 W/m² | - |
| 1777900482 | 20° C | 76% | 1021.9 hPa | 0 mm | - | 407 W/m² | - |
| 1777900179 | 20.56° C | 75% | 1021.8 hPa | 0 mm | - | 173 W/m² | - |
| 1777899875 | 21.67° C | 71% | 1021.7 hPa | 0 mm | - | 381 W/m² | - |
| 1777899572 | 21.11° C | 72% | 1021.7 hPa | 0 mm | - | 624 W/m² | - |
* Rain latest hour (hover to see other rain measurements)
** Current wind speed in m/s (hover to see current wind gust speed)